sensor_id;sensor_type;location;lat;lon;timestamp;pressure;altitude;pressure_sealevel;temperature;humidity
54628;BME280;40525;55.926;21.066;2022-12-10T00:00:44;101188.06;;;-8.27;78.24
54628;BME280;40525;55.926;21.066;2022-12-10T00:03:11;101191.88;;;-8.29;78.23
54628;BME280;40525;55.926;21.066;2022-12-10T00:05:37;101184.77;;;-8.25;78.49
54628;BME280;40525;55.926;21.066;2022-12-10T00:08:04;101188.03;;;-8.17;78.68
54628;BME280;40525;55.926;21.066;2022-12-10T00:10:30;101188.48;;;-8.16;78.42
54628;BME280;40525;55.926;21.066;2022-12-10T00:12:57;101191.17;;;-8.13;78.81
54628;BME280;40525;55.926;21.066;2022-12-10T00:15:24;101194.43;;;-8.06;79.01
54628;BME280;40525;55.926;21.066;2022-12-10T00:17:50;101205.46;;;-7.96;79.12
54628;BME280;40525;55.926;21.066;2022-12-10T00:20:17;101208.15;;;-7.93;78.93
54628;BME280;40525;55.926;21.066;2022-12-10T00:22:43;101198.22;;;-7.83;79.21
54628;BME280;40525;55.926;21.066;2022-12-10T00:25:10;101201.95;;;-7.75;79.25
54628;BME280;40525;55.926;21.066;2022-12-10T00:27:37;101195.77;;;-7.69;79.31
54628;BME280;40525;55.926;21.066;2022-12-10T00:30:04;101192.05;;;-7.66;79.24
54628;BME280;40525;55.926;21.066;2022-12-10T00:32:32;101199.11;;;-7.59;79.18
54628;BME280;40525;55.926;21.066;2022-12-10T00:34:59;101195.90;;;-7.53;79.11
54628;BME280;40525;55.926;21.066;2022-12-10T00:37:26;101198.22;;;-7.48;79.39
54628;BME280;40525;55.926;21.066;2022-12-10T00:39:52;101195.24;;;-7.48;79.21
54628;BME280;40525;55.926;21.066;2022-12-10T00:42:19;101190.95;;;-7.49;79.16
54628;BME280;40525;55.926;21.066;2022-12-10T00:44:48;101197.36;;;-7.49;79.46
54628;BME280;40525;55.926;21.066;2022-12-10T00:47:14;101197.36;;;-7.49;79.42
54628;BME280;40525;55.926;21.066;2022-12-10T00:49:41;101199.56;;;-7.47;79.65
54628;BME280;40525;55.926;21.066;2022-12-10T00:52:07;101202.57;;;-7.46;79.72
54628;BME280;40525;55.926;21.066;2022-12-10T00:54:34;101198.41;;;-7.43;79.86
54628;BME280;40525;55.926;21.066;2022-12-10T00:57:00;101202.63;;;-7.44;79.98
54628;BME280;40525;55.926;21.066;2022-12-10T00:59:27;101199.35;;;-7.40;80.44
54628;BME280;40525;55.926;21.066;2022-12-10T01:01:54;101203.55;;;-7.42;80.55
54628;BME280;40525;55.926;21.066;2022-12-10T01:04:20;101201.53;;;-7.39;80.73
54628;BME280;40525;55.926;21.066;2022-12-10T01:06:50;101208.50;;;-7.35;80.93
54628;BME280;40525;55.926;21.066;2022-12-10T01:09:28;101209.87;;;-7.32;81.08
54628;BME280;40525;55.926;21.066;2022-12-10T01:11:59;101214.52;;;-7.22;81.49
54628;BME280;40525;55.926;21.066;2022-12-10T01:14:30;101215.07;;;-7.18;81.52
54628;BME280;40525;55.926;21.066;2022-12-10T01:17:01;101222.31;;;-7.19;81.65
54628;BME280;40525;55.926;21.066;2022-12-10T01:19:30;101216.35;;;-7.18;81.86
54628;BME280;40525;55.926;21.066;2022-12-10T01:22:00;101213.43;;;-7.16;81.95
54628;BME280;40525;55.926;21.066;2022-12-10T01:24:28;101209.95;;;-7.18;82.08
54628;BME280;40525;55.926;21.066;2022-12-10T01:26:56;101210.69;;;-7.09;82.63
54628;BME280;40525;55.926;21.066;2022-12-10T01:29:23;101206.52;;;-6.93;83.04
54628;BME280;40525;55.926;21.066;2022-12-10T01:31:51;101200.22;;;-6.77;83.30
54628;BME280;40525;55.926;21.066;2022-12-10T01:34:19;101202.92;;;-6.72;82.99
54628;BME280;40525;55.926;21.066;2022-12-10T01:36:49;101201.70;;;-6.71;83.14
54628;BME280;40525;55.926;21.066;2022-12-10T01:39:19;101203.27;;;-6.61;83.25
54628;BME280;40525;55.926;21.066;2022-12-10T01:41:50;101203.52;;;-6.54;83.38
54628;BME280;40525;55.926;21.066;2022-12-10T01:46:53;101198.37;;;-6.41;83.58
54628;BME280;40525;55.926;21.066;2022-12-10T01:49:34;101201.54;;;-6.35;83.68
54628;BME280;40525;55.926;21.066;2022-12-10T01:52:04;101203.63;;;-6.36;83.67
54628;BME280;40525;55.926;21.066;2022-12-10T01:54:39;101191.12;;;-6.40;83.75
54628;BME280;40525;55.926;21.066;2022-12-10T01:57:10;101192.27;;;-6.30;84.22
54628;BME280;40525;55.926;21.066;2022-12-10T01:59:44;101186.61;;;-6.20;84.42
54628;BME280;40525;55.926;21.066;2022-12-10T02:08:09;101183.75;;;-6.00;84.52
54628;BME280;40525;55.926;21.066;2022-12-10T02:11:17;101179.78;;;-6.05;84.32
54628;BME280;40525;55.926;21.066;2022-12-10T02:13:57;101180.00;;;-5.97;84.71
54628;BME280;40525;55.926;21.066;2022-12-10T02:16:36;101181.66;;;-5.99;84.53
54628;BME280;40525;55.926;21.066;2022-12-10T02:21:40;101173.19;;;-5.79;85.11
54628;BME280;40525;55.926;21.066;2022-12-10T02:24:12;101169.77;;;-5.80;85.03
54628;BME280;40525;55.926;21.066;2022-12-10T02:31:55;101174.85;;;-5.65;85.67
54628;BME280;40525;55.926;21.066;2022-12-10T02:34:37;101166.81;;;-5.62;85.62
54628;BME280;40525;55.926;21.066;2022-12-10T02:37:14;101167.99;;;-5.66;85.54
54628;BME280;40525;55.926;21.066;2022-12-10T02:39:53;101174.84;;;-5.67;85.54
54628;BME280;40525;55.926;21.066;2022-12-10T02:42:23;101166.17;;;-5.71;85.65
54628;BME280;40525;55.926;21.066;2022-12-10T02:44:53;101167.78;;;-5.74;85.66
54628;BME280;40525;55.926;21.066;2022-12-10T02:47:22;101167.19;;;-5.80;86.07
54628;BME280;40525;55.926;21.066;2022-12-10T02:49:51;101163.50;;;-5.74;86.37
54628;BME280;40525;55.926;21.066;2022-12-10T02:52:20;101164.30;;;-5.60;86.58
54628;BME280;40525;55.926;21.066;2022-12-10T02:54:51;101167.45;;;-5.55;86.76
54628;BME280;40525;55.926;21.066;2022-12-10T03:00:18;101160.92;;;-5.26;87.07
54628;BME280;40525;55.926;21.066;2022-12-10T03:11:21;101156.40;;;-4.84;86.76
54628;BME280;40525;55.926;21.066;2022-12-10T03:13:51;101157.81;;;-4.79;86.67
54628;BME280;40525;55.926;21.066;2022-12-10T03:16:24;101159.58;;;-4.77;86.55
54628;BME280;40525;55.926;21.066;2022-12-10T03:18:55;101150.19;;;-4.75;86.57
54628;BME280;40525;55.926;21.066;2022-12-10T03:21:25;101153.41;;;-4.66;86.79
54628;BME280;40525;55.926;21.066;2022-12-10T03:23:53;101152.95;;;-4.67;86.45
54628;BME280;40525;55.926;21.066;2022-12-10T03:26:22;101148.05;;;-4.75;86.34
54628;BME280;40525;55.926;21.066;2022-12-10T03:28:52;101157.00;;;-4.77;86.49
54628;BME280;40525;55.926;21.066;2022-12-10T03:31:21;101158.34;;;-4.75;86.58
54628;BME280;40525;55.926;21.066;2022-12-10T03:33:48;101155.67;;;-4.78;86.66
54628;BME280;40525;55.926;21.066;2022-12-10T03:36:17;101152.67;;;-4.79;86.79
54628;BME280;40525;55.926;21.066;2022-12-10T03:38:44;101154.20;;;-4.86;86.78
54628;BME280;40525;55.926;21.066;2022-12-10T03:41:11;101152.15;;;-4.83;87.31
54628;BME280;40525;55.926;21.066;2022-12-10T03:43:54;101162.83;;;-4.84;87.21
54628;BME280;40525;55.926;21.066;2022-12-10T03:46:18;101147.39;;;-4.85;87.46
54628;BME280;40525;55.926;21.066;2022-12-10T03:48:45;101149.23;;;-4.80;87.81
54628;BME280;40525;55.926;21.066;2022-12-10T03:51:11;101146.66;;;-4.80;87.56
54628;BME280;40525;55.926;21.066;2022-12-10T03:53:38;101146.66;;;-4.80;87.63
54628;BME280;40525;55.926;21.066;2022-12-10T03:56:04;101144.61;;;-4.76;88.03
54628;BME280;40525;55.926;21.066;2022-12-10T03:58:31;101145.56;;;-4.72;88.10
54628;BME280;40525;55.926;21.066;2022-12-10T04:00:57;101144.70;;;-4.71;88.09
54628;BME280;40525;55.926;21.066;2022-12-10T04:03:24;101146.98;;;-4.66;88.39
54628;BME280;40525;55.926;21.066;2022-12-10T04:05:50;101143.59;;;-4.63;88.27
54628;BME280;40525;55.926;21.066;2022-12-10T04:08:17;101144.49;;;-4.63;88.37
54628;BME280;40525;55.926;21.066;2022-12-10T04:10:44;101138.06;;;-4.63;88.45
54628;BME280;40525;55.926;21.066;2022-12-10T04:13:10;101136.73;;;-4.64;88.45
54628;BME280;40525;55.926;21.066;2022-12-10T04:15:56;101143.59;;;-4.63;88.60
54628;BME280;40525;55.926;21.066;2022-12-10T04:18:41;101137.30;;;-4.59;88.74
54628;BME280;40525;55.926;21.066;2022-12-10T04:21:07;101144.20;;;-4.56;88.99
54628;BME280;40525;55.926;21.066;2022-12-10T04:23:52;101138.66;;;-4.54;89.04
54628;BME280;40525;55.926;21.066;2022-12-10T04:26:37;101144.67;;;-4.54;89.03
54628;BME280;40525;55.926;21.066;2022-12-10T04:29:29;101137.98;;;-4.47;89.25
54628;BME280;40525;55.926;21.066;2022-12-10T04:31:53;101133.27;;;-4.46;89.24
54628;BME280;40525;55.926;21.066;2022-12-10T04:34:21;101136.22;;;-4.48;89.12
54628;BME280;40525;55.926;21.066;2022-12-10T04:36:48;101136.73;;;-4.45;89.21
54628;BME280;40525;55.926;21.066;2022-12-10T04:39:15;101137.98;;;-4.47;89.41
54628;BME280;40525;55.926;21.066;2022-12-10T04:41:44;101134.50;;;-4.49;89.57
54628;BME280;40525;55.926;21.066;2022-12-10T04:44:12;101140.89;;;-4.51;89.63
54628;BME280;40525;55.926;21.066;2022-12-10T04:46:38;101138.75;;;-4.51;89.72
54628;BME280;40525;55.926;21.066;2022-12-10T04:49:05;101138.28;;;-4.52;90.03
54628;BME280;40525;55.926;21.066;2022-12-10T04:51:32;101138.80;;;-4.48;90.01
54628;BME280;40525;55.926;21.066;2022-12-10T04:53:58;101132.45;;;-4.45;90.06
54628;BME280;40525;55.926;21.066;2022-12-10T04:56:25;101132.09;;;-4.41;90.23
54628;BME280;40525;55.926;21.066;2022-12-10T04:58:54;101130.90;;;-4.37;90.38
54628;BME280;40525;55.926;21.066;2022-12-10T05:01:21;101124.19;;;-4.30;90.44
54628;BME280;40525;55.926;21.066;2022-12-10T05:03:48;101129.81;;;-4.27;90.33
54628;BME280;40525;55.926;21.066;2022-12-10T05:06:15;101132.34;;;-4.29;90.19
54628;BME280;40525;55.926;21.066;2022-12-10T05:08:43;101133.16;;;-4.32;90.39
54628;BME280;40525;55.926;21.066;2022-12-10T05:11:15;101132.00;;;-4.25;90.52
54628;BME280;40525;55.926;21.066;2022-12-10T05:13:41;101129.89;;;-4.24;90.47
54628;BME280;40525;55.926;21.066;2022-12-10T05:16:11;101130.02;;;-4.18;90.65
54628;BME280;40525;55.926;21.066;2022-12-10T05:18:39;101125.06;;;-4.09;90.97
54628;BME280;40525;55.926;21.066;2022-12-10T05:21:10;101139.08;;;-3.95;91.04
54628;BME280;40525;55.926;21.066;2022-12-10T05:23:40;101130.17;;;-3.90;90.65
54628;BME280;40525;55.926;21.066;2022-12-10T05:26:19;101140.44;;;-3.92;90.27
54628;BME280;40525;55.926;21.066;2022-12-10T05:28:55;101137.35;;;-3.96;90.25
54628;BME280;40525;55.926;21.066;2022-12-10T05:31:27;101143.80;;;-3.96;90.52
54628;BME280;40525;55.926;21.066;2022-12-10T05:33:56;101138.22;;;-3.95;90.48
54628;BME280;40525;55.926;21.066;2022-12-10T05:36:26;101139.03;;;-3.98;90.48
54628;BME280;40525;55.926;21.066;2022-12-10T05:38:56;101138.13;;;-4.00;90.46
54628;BME280;40525;55.926;21.066;2022-12-10T05:41:28;101134.70;;;-3.99;90.56
54628;BME280;40525;55.926;21.066;2022-12-10T05:43:57;101138.64;;;-3.96;90.65
54628;BME280;40525;55.926;21.066;2022-12-10T05:46:27;101131.34;;;-3.96;90.66
54628;BME280;40525;55.926;21.066;2022-12-10T05:48:56;101133.41;;;-3.99;90.67
54628;BME280;40525;55.926;21.066;2022-12-10T05:51:25;101129.16;;;-3.98;90.68
54628;BME280;40525;55.926;21.066;2022-12-10T05:53:54;101129.16;;;-3.97;90.69
54628;BME280;40525;55.926;21.066;2022-12-10T05:56:22;101126.20;;;-3.95;90.77
54628;BME280;40525;55.926;21.066;2022-12-10T05:58:52;101130.98;;;-3.93;90.75
54628;BME280;40525;55.926;21.066;2022-12-10T06:01:24;101133.09;;;-3.94;90.68
54628;BME280;40525;55.926;21.066;2022-12-10T06:03:52;101134.97;;;-3.86;91.09
54628;BME280;40525;55.926;21.066;2022-12-10T06:06:24;101132.03;;;-3.83;90.85
54628;BME280;40525;55.926;21.066;2022-12-10T06:08:53;101138.98;;;-3.79;90.95
54628;BME280;40525;55.926;21.066;2022-12-10T06:11:21;101129.97;;;-3.79;90.87
54628;BME280;40525;55.926;21.066;2022-12-10T06:13:47;101134.72;;;-3.77;90.80
54628;BME280;40525;55.926;21.066;2022-12-10T06:16:14;101135.19;;;-3.74;90.93
54628;BME280;40525;55.926;21.066;2022-12-10T06:18:42;101138.31;;;-3.68;90.84
54628;BME280;40525;55.926;21.066;2022-12-10T06:21:11;101129.33;;;-3.67;90.84
54628;BME280;40525;55.926;21.066;2022-12-10T06:23:40;101132.33;;;-3.67;90.64
54628;BME280;40525;55.926;21.066;2022-12-10T06:26:16;101129.79;;;-3.66;90.79
54628;BME280;40525;55.926;21.066;2022-12-10T06:28:46;101132.02;;;-3.61;90.95
54628;BME280;40525;55.926;21.066;2022-12-10T06:31:13;101128.64;;;-3.57;90.67
54628;BME280;40525;55.926;21.066;2022-12-10T06:33:41;101138.92;;;-3.60;90.40
54628;BME280;40525;55.926;21.066;2022-12-10T06:36:10;101137.63;;;-3.60;90.53
54628;BME280;40525;55.926;21.066;2022-12-10T06:38:38;101135.91;;;-3.59;90.40
54628;BME280;40525;55.926;21.066;2022-12-10T06:41:07;101130.36;;;-3.57;90.59
54628;BME280;40525;55.926;21.066;2022-12-10T06:43:35;101127.00;;;-3.55;90.55
54628;BME280;40525;55.926;21.066;2022-12-10T06:46:11;101129.61;;;-3.51;90.49
54628;BME280;40525;55.926;21.066;2022-12-10T06:48:39;101125.38;;;-3.48;90.51
54628;BME280;40525;55.926;21.066;2022-12-10T06:51:06;101129.18;;;-3.51;90.03
54628;BME280;40525;55.926;21.066;2022-12-10T06:53:35;101141.57;;;-3.55;89.96
54628;BME280;40525;55.926;21.066;2022-12-10T06:56:05;101130.40;;;-3.56;90.02
54628;BME280;40525;55.926;21.066;2022-12-10T06:58:33;101138.95;;;-3.57;90.01
54628;BME280;40525;55.926;21.066;2022-12-10T07:01:09;101140.20;;;-3.60;89.79
54628;BME280;40525;55.926;21.066;2022-12-10T07:03:39;101141.96;;;-3.57;90.00
54628;BME280;40525;55.926;21.066;2022-12-10T07:06:09;101144.54;;;-3.57;90.04
54628;BME280;40525;55.926;21.066;2022-12-10T07:08:37;101143.22;;;-3.59;89.88
54628;BME280;40525;55.926;21.066;2022-12-10T07:11:08;101149.27;;;-3.57;89.97
54628;BME280;40525;55.926;21.066;2022-12-10T07:13:35;101151.05;;;-3.54;90.09
54628;BME280;40525;55.926;21.066;2022-12-10T07:16:02;101156.78;;;-3.45;90.36
54628;BME280;40525;55.926;21.066;2022-12-10T07:18:29;101146.97;;;-3.43;90.03
54628;BME280;40525;55.926;21.066;2022-12-10T07:20:56;101149.19;;;-3.39;89.99
54628;BME280;40525;55.926;21.066;2022-12-10T07:23:23;101155.67;;;-3.36;89.92
54628;BME280;40525;55.926;21.066;2022-12-10T07:25:50;101156.98;;;-3.35;89.65
54628;BME280;40525;55.926;21.066;2022-12-10T07:28:16;101151.41;;;-3.34;89.63
54628;BME280;40525;55.926;21.066;2022-12-10T07:30:43;101151.01;;;-3.34;89.57
54628;BME280;40525;55.926;21.066;2022-12-10T07:33:10;101155.67;;;-3.36;89.39
54628;BME280;40525;55.926;21.066;2022-12-10T07:35:39;101159.57;;;-3.35;89.44
54628;BME280;40525;55.926;21.066;2022-12-10T07:38:06;101158.64;;;-3.38;89.46
54628;BME280;40525;55.926;21.066;2022-12-10T07:40:32;101156.70;;;-3.28;89.78
54628;BME280;40525;55.926;21.066;2022-12-10T07:42:59;101150.25;;;-3.28;89.48
54628;BME280;40525;55.926;21.066;2022-12-10T07:45:26;101148.10;;;-3.27;89.43
54628;BME280;40525;55.926;21.066;2022-12-10T07:47:52;101155.91;;;-3.24;89.39
54628;BME280;40525;55.926;21.066;2022-12-10T07:50:19;101152.36;;;-3.29;89.02
54628;BME280;40525;55.926;21.066;2022-12-10T07:52:46;101159.70;;;-3.27;89.24
54628;BME280;40525;55.926;21.066;2022-12-10T07:55:12;101159.70;;;-3.27;89.10
54628;BME280;40525;55.926;21.066;2022-12-10T07:57:39;101161.09;;;-3.22;89.27
54628;BME280;40525;55.926;21.066;2022-12-10T08:00:06;101164.64;;;-3.16;89.34
54628;BME280;40525;55.926;21.066;2022-12-10T08:02:36;101166.45;;;-3.10;89.24
54628;BME280;40525;55.926;21.066;2022-12-10T08:05:02;101171.28;;;-3.05;89.10
54628;BME280;40525;55.926;21.066;2022-12-10T08:07:31;101180.44;;;-2.97;88.96
54628;BME280;40525;55.926;21.066;2022-12-10T08:09:58;101177.00;;;-2.96;88.52
54628;BME280;40525;55.926;21.066;2022-12-10T08:12:24;101180.44;;;-2.97;88.37
54628;BME280;40525;55.926;21.066;2022-12-10T08:14:51;101183.91;;;-2.95;88.48
54628;BME280;40525;55.926;21.066;2022-12-10T08:17:17;101178.02;;;-2.88;88.63
54628;BME280;40525;55.926;21.066;2022-12-10T08:19:44;101176.42;;;-2.80;88.57
54628;BME280;40525;55.926;21.066;2022-12-10T08:22:10;101178.73;;;-2.70;88.50
54628;BME280;40525;55.926;21.066;2022-12-10T08:24:37;101172.37;;;-2.64;88.34
54628;BME280;40525;55.926;21.066;2022-12-10T08:27:04;101168.18;;;-2.57;88.30
54628;BME280;40525;55.926;21.066;2022-12-10T08:29:30;101174.81;;;-2.46;88.12
54628;BME280;40525;55.926;21.066;2022-12-10T08:31:57;101170.10;;;-2.44;87.94
54628;BME280;40525;55.926;21.066;2022-12-10T08:34:23;101171.77;;;-2.47;87.48
54628;BME280;40525;55.926;21.066;2022-12-10T08:36:50;101183.36;;;-2.49;87.37
54628;BME280;40525;55.926;21.066;2022-12-10T08:39:17;101177.77;;;-2.50;87.19
54628;BME280;40525;55.926;21.066;2022-12-10T08:41:44;101173.09;;;-2.46;87.25
54628;BME280;40525;55.926;21.066;2022-12-10T08:44:12;101177.05;;;-2.40;87.14
54628;BME280;40525;55.926;21.066;2022-12-10T08:46:39;101177.53;;;-2.36;87.07
54628;BME280;40525;55.926;21.066;2022-12-10T08:49:06;101174.95;;;-2.36;86.84
54628;BME280;40525;55.926;21.066;2022-12-10T08:51:33;101175.84;;;-2.35;86.70
54628;BME280;40525;55.926;21.066;2022-12-10T08:54:00;101182.75;;;-2.32;86.54
54628;BME280;40525;55.926;21.066;2022-12-10T08:56:26;101174.52;;;-2.37;86.49
54628;BME280;40525;55.926;21.066;2022-12-10T08:58:53;101172.77;;;-2.38;86.69
54628;BME280;40525;55.926;21.066;2022-12-10T09:01:20;101170.67;;;-2.35;86.77
54628;BME280;40525;55.926;21.066;2022-12-10T09:03:46;101170.67;;;-2.33;86.78
54628;BME280;40525;55.926;21.066;2022-12-10T09:06:17;101170.72;;;-2.30;87.04
54628;BME280;40525;55.926;21.066;2022-12-10T09:08:44;101174.30;;;-2.21;87.12
54628;BME280;40525;55.926;21.066;2022-12-10T09:11:14;101169.64;;;-2.15;87.27
54628;BME280;40525;55.926;21.066;2022-12-10T09:13:43;101168.45;;;-2.07;87.19
54628;BME280;40525;55.926;21.066;2022-12-10T09:16:11;101164.63;;;-2.04;87.16
54628;BME280;40525;55.926;21.066;2022-12-10T09:18:38;101161.28;;;-1.96;87.30
54628;BME280;40525;55.926;21.066;2022-12-10T09:21:14;101159.59;;;-1.95;87.07
54628;BME280;40525;55.926;21.066;2022-12-10T09:23:40;101155.75;;;-1.90;87.19
54628;BME280;40525;55.926;21.066;2022-12-10T09:26:08;101158.80;;;-1.89;86.82
54628;BME280;40525;55.926;21.066;2022-12-10T09:28:37;101160.48;;;-1.90;86.72
54628;BME280;40525;55.926;21.066;2022-12-10T09:31:05;101162.63;;;-1.92;86.65
54628;BME280;40525;55.926;21.066;2022-12-10T09:33:33;101156.98;;;-1.97;86.59
54628;BME280;40525;55.926;21.066;2022-12-10T09:36:03;101154.75;;;-2.02;86.26
54628;BME280;40525;55.926;21.066;2022-12-10T09:38:42;101152.95;;;-2.07;86.44
54628;BME280;40525;55.926;21.066;2022-12-10T09:41:39;101152.91;;;-2.12;86.32
54628;BME280;40525;55.926;21.066;2022-12-10T09:44:29;101153.33;;;-2.11;86.95
54628;BME280;40525;55.926;21.066;2022-12-10T09:47:14;101150.92;;;-1.99;87.21
54628;BME280;40525;55.926;21.066;2022-12-10T09:49:52;101155.30;;;-1.93;87.03
54628;BME280;40525;55.926;21.066;2022-12-10T09:52:40;101156.72;;;-1.84;87.18
54628;BME280;40525;55.926;21.066;2022-12-10T09:55:20;101156.80;;;-1.76;86.94
54628;BME280;40525;55.926;21.066;2022-12-10T09:57:52;101155.55;;;-1.71;86.77
54628;BME280;40525;55.926;21.066;2022-12-10T10:00:37;101156.45;;;-1.68;86.50
54628;BME280;40525;55.926;21.066;2022-12-10T10:03:09;101160.38;;;-1.65;86.30
54628;BME280;40525;55.926;21.066;2022-12-10T10:05:41;101161.67;;;-1.65;86.04
54628;BME280;40525;55.926;21.066;2022-12-10T10:08:28;101169.41;;;-1.66;85.92
54628;BME280;40525;55.926;21.066;2022-12-10T10:10:58;101167.73;;;-1.63;85.93
54628;BME280;40525;55.926;21.066;2022-12-10T10:13:36;101170.79;;;-1.59;85.75
54628;BME280;40525;55.926;21.066;2022-12-10T10:16:16;101163.83;;;-1.64;85.51
54628;BME280;40525;55.926;21.066;2022-12-10T10:18:57;101170.25;;;-1.67;85.52
54628;BME280;40525;55.926;21.066;2022-12-10T10:21:35;101177.14;;;-1.68;85.43
54628;BME280;40525;55.926;21.066;2022-12-10T10:24:07;101177.59;;;-1.67;85.44
54628;BME280;40525;55.926;21.066;2022-12-10T10:26:46;101174.61;;;-1.65;85.53
54628;BME280;40525;55.926;21.066;2022-12-10T10:29:19;101165.19;;;-1.58;85.48
54628;BME280;40525;55.926;21.066;2022-12-10T10:31:43;101170.42;;;-1.53;85.52
54628;BME280;40525;55.926;21.066;2022-12-10T10:34:21;101168.73;;;-1.48;85.45
54628;BME280;40525;55.926;21.066;2022-12-10T10:36:56;101167.47;;;-1.47;85.21
54628;BME280;40525;55.926;21.066;2022-12-10T10:39:27;101161.02;;;-1.45;85.02
54628;BME280;40525;55.926;21.066;2022-12-10T10:41:57;101161.02;;;-1.45;85.02
54628;BME280;40525;55.926;21.066;2022-12-10T10:44:33;101164.13;;;-1.35;85.19
54628;BME280;40525;55.926;21.066;2022-12-10T10:47:00;101156.04;;;-1.25;85.07
54628;BME280;40525;55.926;21.066;2022-12-10T10:49:32;101154.81;;;-1.21;84.84
54628;BME280;40525;55.926;21.066;2022-12-10T10:52:13;101155.22;;;-1.23;84.52
54628;BME280;40525;55.926;21.066;2022-12-10T10:54:42;101156.52;;;-1.23;84.53
54628;BME280;40525;55.926;21.066;2022-12-10T11:00:20;101149.19;;;-1.23;84.38
54628;BME280;40525;55.926;21.066;2022-12-10T11:02:50;101148.75;;;-1.23;84.21
54628;BME280;40525;55.926;21.066;2022-12-10T11:08:00;101147.83;;;-1.28;83.95
54628;BME280;40525;55.926;21.066;2022-12-10T11:10:28;101142.61;;;-1.34;83.78
54628;BME280;40525;55.926;21.066;2022-12-10T11:13:04;101138.69;;;-1.37;84.00
54628;BME280;40525;55.926;21.066;2022-12-10T11:15:35;101143.03;;;-1.33;84.19
54628;BME280;40525;55.926;21.066;2022-12-10T11:18:25;101141.36;;;-1.31;84.13
54628;BME280;40525;55.926;21.066;2022-12-10T11:21:02;101136.62;;;-1.28;84.06
54628;BME280;40525;55.926;21.066;2022-12-10T11:23:44;101136.23;;;-1.25;84.11
54628;BME280;40525;55.926;21.066;2022-12-10T11:32:12;101139.75;;;-1.16;83.79
54628;BME280;40525;55.926;21.066;2022-12-10T11:34:56;101131.55;;;-1.16;83.59
54628;BME280;40525;55.926;21.066;2022-12-10T11:37:31;101129.85;;;-1.15;83.45
54628;BME280;40525;55.926;21.066;2022-12-10T11:40:22;101131.09;;;-1.20;83.29
54628;BME280;40525;55.926;21.066;2022-12-10T11:49:01;101137.89;;;-1.30;83.10
54628;BME280;40525;55.926;21.066;2022-12-10T12:00:52;101133.06;;;-1.40;82.85
54628;BME280;40525;55.926;21.066;2022-12-10T12:03:31;101133.36;;;-1.52;82.65
54628;BME280;40525;55.926;21.066;2022-12-10T12:09:40;101123.37;;;-1.61;83.00
54628;BME280;40525;55.926;21.066;2022-12-10T12:12:31;101129.34;;;-1.63;82.80
54628;BME280;40525;55.926;21.066;2022-12-10T12:14:58;101128.49;;;-1.64;82.86
54628;BME280;40525;55.926;21.066;2022-12-10T12:17:36;101122.89;;;-1.63;82.81
54628;BME280;40525;55.926;21.066;2022-12-10T12:20:30;101131.45;;;-1.70;82.60
54628;BME280;40525;55.926;21.066;2022-12-10T12:23:11;101129.27;;;-1.71;82.69
54628;BME280;40525;55.926;21.066;2022-12-10T12:25:45;101129.72;;;-1.70;82.63
54628;BME280;40525;55.926;21.066;2022-12-10T12:28:25;101118.55;;;-1.69;82.72
54628;BME280;40525;55.926;21.066;2022-12-10T12:30:49;101121.14;;;-1.66;82.57
54628;BME280;40525;55.926;21.066;2022-12-10T12:33:38;101116.84;;;-1.65;82.46
54628;BME280;40525;55.926;21.066;2022-12-10T12:36:14;101119.01;;;-1.63;82.34
54628;BME280;40525;55.926;21.066;2022-12-10T12:38:56;101116.36;;;-1.69;81.80
54628;BME280;40525;55.926;21.066;2022-12-10T12:50:18;101120.91;;;-1.87;81.44
54628;BME280;40525;55.926;21.066;2022-12-10T12:52:48;101117.42;;;-1.91;81.69
54628;BME280;40525;55.926;21.066;2022-12-10T12:55:18;101115.19;;;-1.99;81.52
54628;BME280;40525;55.926;21.066;2022-12-10T12:57:56;101110.83;;;-2.02;81.65
54628;BME280;40525;55.926;21.066;2022-12-10T13:00:26;101116.85;;;-2.01;81.63
54628;BME280;40525;55.926;21.066;2022-12-10T13:03:01;101114.66;;;-2.06;81.48
54628;BME280;40525;55.926;21.066;2022-12-10T13:05:37;101110.33;;;-2.07;81.61
54628;BME280;40525;55.926;21.066;2022-12-10T13:22:02;101122.69;;;-2.18;80.90
54628;BME280;40525;55.926;21.066;2022-12-10T13:27:29;101118.77;;;-2.21;80.87
54628;BME280;40525;55.926;21.066;2022-12-10T13:40:39;101113.59;;;-2.53;80.49
54628;BME280;40525;55.926;21.066;2022-12-10T13:43:36;101123.83;;;-2.58;80.47
54628;BME280;40525;55.926;21.066;2022-12-10T13:46:34;101120.28;;;-2.66;80.18
54628;BME280;40525;55.926;21.066;2022-12-10T13:49:04;101128.69;;;-2.80;80.19
54628;BME280;40525;55.926;21.066;2022-12-10T13:57:22;101123.23;;;-3.00;80.12
54628;BME280;40525;55.926;21.066;2022-12-10T14:00:20;101134.34;;;-3.02;80.31
54628;BME280;40525;55.926;21.066;2022-12-10T14:06:00;101142.17;;;-2.98;80.24
54628;BME280;40525;55.926;21.066;2022-12-10T14:08:27;101134.83;;;-2.98;80.07
54628;BME280;40525;55.926;21.066;2022-12-10T14:10:58;101131.77;;;-3.02;79.88
54628;BME280;40525;55.926;21.066;2022-12-10T14:13:39;101128.75;;;-3.03;79.80
54628;BME280;40525;55.926;21.066;2022-12-10T14:16:02;101128.32;;;-3.03;79.74
54628;BME280;40525;55.926;21.066;2022-12-10T14:18:30;101131.33;;;-3.03;79.62
54628;BME280;40525;55.926;21.066;2022-12-10T14:20:57;101125.28;;;-3.04;79.42
54628;BME280;40525;55.926;21.066;2022-12-10T14:23:28;101126.57;;;-3.05;79.36
54628;BME280;40525;55.926;21.066;2022-12-10T14:26:26;101128.20;;;-3.10;79.11
54628;BME280;40525;55.926;21.066;2022-12-10T14:28:53;101126.28;;;-3.21;78.81
54628;BME280;40525;55.926;21.066;2022-12-10T14:31:34;101120.20;;;-3.26;78.93
54628;BME280;40525;55.926;21.066;2022-12-10T14:34:05;101124.43;;;-3.29;78.97
54628;BME280;40525;55.926;21.066;2022-12-10T14:36:37;101121.86;;;-3.29;78.85
54628;BME280;40525;55.926;21.066;2022-12-10T14:39:14;101125.26;;;-3.30;78.82
54628;BME280;40525;55.926;21.066;2022-12-10T14:41:47;101129.95;;;-3.33;78.63
54628;BME280;40525;55.926;21.066;2022-12-10T14:44:17;101126.48;;;-3.35;78.61